Capt. Potter — WDE2308 — position and weather

sailwx.info

Track history (hours):
 
Tides and Currents Weather Stations Pressure Air Temp Water Temp Dewpoint Dewpoint Depression Visibility Wind Speed Wind Dir Waves Ship Positions

Capt. Potter

Owner: Siddie Golden, Inc, Lowland, NC. More information available from US FCC via Universal Licensing System and Coast Guard Vessel Documentation Center.

Last reported at 2017-Nov-08 17:38 UTC. Time now 2017-Nov-24 11:14 UTC.
Position N 34°49' W 076°41'.
Warning: this ship's position is 15 days out of date.

Length 30 m.

Type: Fishing. MMSI: 367323270.

Date/timePositionNaut miles runAvg speedWind from/ knotsBaromVisibWave heightAir tempDewpointWater temp
2017-Nov-08 17:38N 34°49' W 076°41'1 6.5
2017-Nov-08 17:28N 34°48' W 076°41'3 6.3
2017-Nov-08 17:00N 34°46' W 076°40'3 5.5
2017-Nov-08 16:30N 34°43' W 076°42'1 1.7
2017-Nov-08 15:58N 34°42' W 076°41'0 0.0
2017-Nov-08 15:28N 34°42' W 076°41'0 0.0
2017-Nov-08 14:58N 34°42' W 076°41'0 0.1
2017-Nov-08 14:28N 34°42' W 076°41'0 0.0
2017-Nov-08 13:58N 34°42' W 076°41'0 0.0
2017-Nov-08 13:28N 34°42' W 076°41'0 0.0
2017-Nov-08 12:58N 34°42' W 076°41'0 0.0
2017-Nov-08 12:28N 34°42' W 076°41'0 0.0
2017-Nov-08 11:58N 34°42' W 076°41'0 0.1
2017-Nov-08 11:28N 34°42' W 076°41'0 0.0
2017-Nov-08 10:58N 34°42' W 076°41'0 0.0
2017-Nov-08 10:28N 34°42' W 076°41'0 0.0
2017-Nov-08 09:58N 34°42' W 076°41'0 0.0
2017-Nov-08 09:28N 34°42' W 076°41'0 0.0
2017-Nov-08 08:58N 34°42' W 076°41'0 0.0
2017-Nov-08 08:28N 34°42' W 076°41'0 0.0
2017-Nov-08 07:58N 34°42' W 076°41'0 0.0
2017-Nov-08 07:28N 34°42' W 076°41'0 0.0
2017-Nov-08 06:58N 34°42' W 076°41'0 0.1
2017-Nov-08 06:30N 34°42' W 076°41'0 0.4
2017-Nov-08 06:00N 34°42' W 076°41'2 4.0
2017-Nov-08 05:30N 34°40' W 076°40'3 5.8
2017-Nov-08 05:00N 34°40' W 076°44'  
2017-Nov-01 23:24N 34°39' W 076°38'3 6.3
2017-Nov-01 23:00N 34°41' W 076°40'3 6.5
2017-Nov-01 22:30N 34°44' W 076°42'3 6.3
2017-Nov-01 22:00N 34°47' W 076°41'  
Track history (hours):
 
Tides and Currents Weather Stations Pressure Air Temp Water Temp Dewpoint Dewpoint Depression Visibility Wind Speed Wind Dir Waves Ship Positions

Capt. Potter

Owner: Siddie Golden, Inc, Lowland, NC. More information available from US FCC via Universal Licensing System and Coast Guard Vessel Documentation Center.

Last reported at 2017-Nov-08 17:38 UTC. Time now 2017-Nov-24 11:14 UTC.
Position N 34°49' W 076°41'.
Warning: this ship's position is 15 days out of date.

Length 30 m.

Type: Fishing. MMSI: 367323270.

Date/timePositionNaut miles runAvg speedWind from/ knotsBaromVisibWave heightAir tempDewpointWater temp
2017-Nov-08 17:38N 34°49' W 076°41'1 6.5
2017-Nov-08 17:28N 34°48' W 076°41'3 6.3
2017-Nov-08 17:00N 34°46' W 076°40'3 5.5
2017-Nov-08 16:30N 34°43' W 076°42'1 1.7
2017-Nov-08 15:58N 34°42' W 076°41'0 0.0
2017-Nov-08 15:28N 34°42' W 076°41'0 0.0
2017-Nov-08 14:58N 34°42' W 076°41'0 0.1
2017-Nov-08 14:28N 34°42' W 076°41'0 0.0
2017-Nov-08 13:58N 34°42' W 076°41'0 0.0
2017-Nov-08 13:28N 34°42' W 076°41'0 0.0
2017-Nov-08 12:58N 34°42' W 076°41'0 0.0
2017-Nov-08 12:28N 34°42' W 076°41'0 0.0
2017-Nov-08 11:58N 34°42' W 076°41'0 0.1
2017-Nov-08 11:28N 34°42' W 076°41'0 0.0
2017-Nov-08 10:58N 34°42' W 076°41'0 0.0
2017-Nov-08 10:28N 34°42' W 076°41'0 0.0
2017-Nov-08 09:58N 34°42' W 076°41'0 0.0
2017-Nov-08 09:28N 34°42' W 076°41'0 0.0
2017-Nov-08 08:58N 34°42' W 076°41'0 0.0
2017-Nov-08 08:28N 34°42' W 076°41'0 0.0
2017-Nov-08 07:58N 34°42' W 076°41'0 0.0
2017-Nov-08 07:28N 34°42' W 076°41'0 0.0
2017-Nov-08 06:58N 34°42' W 076°41'0 0.1
2017-Nov-08 06:30N 34°42' W 076°41'0 0.4
2017-Nov-08 06:00N 34°42' W 076°41'2 4.0
2017-Nov-08 05:30N 34°40' W 076°40'3 5.8
2017-Nov-08 05:00N 34°40' W 076°44'  
2017-Nov-01 23:24N 34°39' W 076°38'3 6.3
2017-Nov-01 23:00N 34°41' W 076°40'3 6.5
2017-Nov-01 22:30N 34°44' W 076°42'3 6.3
2017-Nov-01 22:00N 34°47' W 076°41'  

Dump ship's entire track history